Time;durP1;ratioP1;P1;durP2;ratioP2;P2;SDS_P1;SDS_P2;PMS_P1;PMS_P2;Temp;Humidity;BMP_temperature;BMP_pressure;BME280_temperature;BME280_humidity;BME280_pressure;Samples;Min_cycle;Max_cycle;Signal;HPM_P1;HPM_P2
2021/12/27 00:01:16;;;;;;;132.97;9.23;;;;;;;-0.13;100.00;98956.16;5114023;28;20475;-60
2021/12/27 00:03:44;;;;;;;202.20;13.93;;;;;;;-0.10;100.00;98956.06;5113621;28;21057;-60
2021/12/27 00:06:11;;;;;;;223.60;14.00;;;;;;;0.07;100.00;98943.81;5113718;28;20995;-60
2021/12/27 00:08:40;;;;;;;160.77;11.53;;;;;;;-0.05;100.00;98947.53;5113689;28;20450;-61
2021/12/27 00:11:09;;;;;;;155.40;9.40;;;;;;;-0.18;100.00;98942.91;5113231;28;20531;-67
2021/12/27 00:13:37;;;;;;;111.80;9.67;;;;;;;-0.11;100.00;98947.72;5113255;28;20454;-68
2021/12/27 00:16:04;;;;;;;111.50;8.10;;;;;;;-0.05;100.00;98939.16;5113365;28;20481;-68
2021/12/27 00:18:31;;;;;;;112.33;8.37;;;;;;;-0.11;100.00;98942.69;5113285;28;20455;-67
2021/12/27 00:20:58;;;;;;;221.20;14.67;;;;;;;-0.03;100.00;98949.97;5113339;28;20919;-68
2021/12/27 00:23:25;;;;;;;152.97;12.40;;;;;;;-0.06;100.00;98953.44;5112984;28;21049;-61
2021/12/27 00:25:52;;;;;;;93.10;7.20;;;;;;;0.02;100.00;98965.75;5113009;28;20485;-67
2021/12/27 00:28:20;;;;;;;273.83;16.10;;;;;;;0.07;100.00;98968.94;5113132;28;20959;-60
2021/12/27 00:30:47;;;;;;;179.40;13.80;;;;;;;0.07;100.00;98979.00;5113273;28;20479;-60
2021/12/27 00:33:14;;;;;;;201.37;12.63;;;;;;;0.03;100.00;98979.13;5113091;28;20447;-67
2021/12/27 00:35:41;;;;;;;190.83;12.63;;;;;;;0.03;100.00;98987.50;5112697;28;20483;-68
2021/12/27 00:38:08;;;;;;;236.73;12.87;;;;;;;-0.01;100.00;98990.97;5112784;28;20996;-68
2021/12/27 00:40:36;;;;;;;153.13;11.77;;;;;;;-0.05;100.00;98999.47;5112569;28;20474;-60
2021/12/27 00:43:03;;;;;;;178.93;12.60;;;;;;;-0.04;100.00;98986.84;5112623;28;20490;-67
2021/12/27 00:45:31;;;;;;;201.97;12.23;;;;;;;0.02;100.00;98985.84;5112788;28;20473;-60
2021/12/27 00:47:59;;;;;;;161.27;11.70;;;;;;;0.02;100.00;98993.38;5112601;28;20450;-60
2021/12/27 00:50:26;;;;;;;107.23;9.10;;;;;;;0.03;100.00;98992.53;5112661;28;20579;-60
2021/12/27 00:52:53;;;;;;;163.13;11.50;;;;;;;0.04;100.00;99000.91;5112495;28;20439;-68
2021/12/27 00:55:20;;;;;;;109.07;8.10;;;;;;;-0.06;100.00;98998.66;5112830;28;20458;-60
2021/12/27 00:57:48;;;;;;;143.10;9.93;;;;;;;-0.05;100.00;98999.47;5112651;28;20956;-68
2021/12/27 01:00:17;;;;;;;162.67;11.10;;;;;;;-0.07;100.00;99001.22;5112664;28;20451;-68
2021/12/27 01:02:47;;;;;;;141.87;11.13;;;;;;;-0.03;100.00;99002.75;5112711;28;20447;-68
2021/12/27 01:05:16;;;;;;;140.10;9.57;;;;;;;0.04;100.00;99009.25;5112118;28;20453;-68
2021/12/27 01:07:44;;;;;;;83.70;7.70;;;;;;;-0.04;100.00;99003.63;5112308;28;20450;-60
2021/12/27 01:10:31;;;;;;;168.03;12.03;;;;;;;-0.03;100.00;99002.75;5112388;28;20836;-68
2021/12/27 01:13:06;;;;;;;157.93;12.40;;;;;;;-0.07;100.00;99001.22;5112249;28;20439;-68
2021/12/27 01:15:46;;;;;;;176.27;11.53;;;;;;;-0.08;100.00;99009.63;5112083;28;20478;-59
2021/12/27 01:18:15;;;;;;;116.93;9.27;;;;;;;-0.08;100.00;99005.41;5112136;28;20949;-68
2021/12/27 01:20:43;;;;;;;118.53;10.53;;;;;;;0.04;100.00;98994.16;5112084;28;20471;-60
2021/12/27 01:23:10;;;;;;;180.23;12.00;;;;;;;0.02;100.00;98988.38;5111800;28;20522;-59
2021/12/27 01:25:37;;;;;;;190.23;14.03;;;;;;;0.07;100.00;98979.00;5111891;28;21066;-60
2021/12/27 01:28:05;;;;;;;195.83;12.27;;;;;;;0.14;100.00;98985.47;5112071;28;20812;-67
2021/12/27 01:30:37;;;;;;;134.73;12.00;;;;;;;0.11;100.00;98983.03;5111687;28;20482;-68
2021/12/27 01:33:06;;;;;;;124.20;8.40;;;;;;;0.13;100.00;98978.81;5111918;28;20920;-68
2021/12/27 01:35:35;;;;;;;165.43;13.00;;;;;;;0.07;100.00;98973.16;5111835;28;21044;-66
2021/12/27 01:38:02;;;;;;;275.23;15.77;;;;;;;0.09;100.00;98983.97;5111652;28;21114;-67
2021/12/27 01:40:29;;;;;;;169.27;11.13;;;;;;;0.07;100.00;98979.00;5111836;28;20477;-60
2021/12/27 01:43:07;;;;;;;195.30;11.73;;;;;;;0.04;100.00;98984.13;5111523;28;20521;-68
2021/12/27 01:45:37;;;;;;;107.30;6.10;;;;;;;0.06;100.00;98987.41;5111820;28;20478;-68
2021/12/27 01:48:06;;;;;;;153.80;12.00;;;;;;;0.03;100.00;98992.53;5111605;28;20451;-68
2021/12/27 01:50:36;;;;;;;179.23;9.83;;;;;;;0.02;100.00;98985.84;5111208;28;20475;-68
2021/12/27 01:53:04;;;;;;;177.13;11.63;;;;;;;-0.03;100.00;98977.63;5111636;28;20450;-60
2021/12/27 01:55:31;;;;;;;102.70;7.97;;;;;;;-0.12;100.00;98976.22;5111538;28;20470;-68
2021/12/27 01:57:58;;;;;;;115.87;11.03;;;;;;;-0.01;100.00;98973.38;5111655;27;20471;-58
2021/12/27 02:00:25;;;;;;;105.53;9.60;;;;;;;-0.04;100.00;98981.00;5111402;28;20452;-67
2021/12/27 02:02:52;;;;;;;139.40;12.80;;;;;;;-0.06;100.00;98977.72;5111474;28;20458;-66
2021/12/27 02:05:20;;;;;;;130.70;8.47;;;;;;;-0.05;100.00;98964.31;5111111;28;20501;-66
2021/12/27 02:07:48;;;;;;;213.07;13.10;;;;;;;-0.13;100.00;98962.00;5111373;28;20449;-58
2021/12/27 02:10:15;;;;;;;167.40;12.30;;;;;;;-0.10;100.00;98961.09;5111537;28;20455;-61
2021/12/27 02:12:43;;;;;;;238.83;15.87;;;;;;;0.01;100.00;98961.59;5111227;28;20465;-58
2021/12/27 02:15:12;;;;;;;148.43;11.80;;;;;;;-0.11;100.00;98967.00;5110936;28;20462;-66
2021/12/27 02:17:40;;;;;;;189.00;13.20;;;;;;;-0.17;100.00;98965.50;5110978;28;20482;-59
2021/12/27 02:20:11;;;;;;;48.73;5.83;;;;;;;-0.16;100.00;98966.31;5111228;28;20451;-65
2021/12/27 02:22:40;;;;;;;42.50;5.80;;;;;;;-0.18;100.00;98960.50;5111046;28;20915;-66
2021/12/27 02:25:08;;;;;;;100.63;8.33;;;;;;;-0.19;100.00;98956.38;5110865;28;20490;-66
2021/12/27 02:27:36;;;;;;;91.93;7.37;;;;;;;-0.14;100.00;98954.53;5111013;28;20458;-58
2021/12/27 02:30:06;;;;;;;188.33;11.70;;;;;;;-0.15;100.00;98947.84;5111089;28;20454;-66
2021/12/27 02:32:33;;;;;;;136.03;10.13;;;;;;;-0.32;100.00;98948.34;5111312;28;20439;-66
2021/12/27 02:35:00;;;;;;;63.80;6.67;;;;;;;-0.16;100.00;98951.25;5111006;28;20454;-66
2021/12/27 02:37:28;;;;;;;164.73;10.90;;;;;;;-0.16;100.00;98951.25;5111006;28;20467;-66
2021/12/27 02:39:56;;;;;;;128.83;9.13;;;;;;;-0.11;100.00;98959.47;5110919;28;20451;-58
2021/12/27 02:42:23;;;;;;;214.30;12.40;;;;;;;-0.08;100.00;98961.88;5110904;28;20466;-65
2021/12/27 02:44:50;;;;;;;149.23;10.37;;;;;;;-0.06;100.00;98957.63;5110758;28;20486;-66
2021/12/27 02:47:17;;;;;;;98.67;8.53;;;;;;;-0.08;100.00;98950.13;5111265;28;20467;-60
2021/12/27 02:49:44;;;;;;;140.40;9.00;;;;;;;-0.17;100.00;98954.63;5111016;28;20952;-68
2021/12/27 02:52:11;;;;;;;86.50;5.87;;;;;;;-0.11;100.00;98959.47;5111095;28;20470;-68
2021/12/27 02:54:43;;;;;;;176.80;9.90;;;;;;;-0.16;100.00;98958.78;5110757;28;20531;-68
2021/12/27 02:57:10;;;;;;;205.67;12.90;;;;;;;-0.09;100.00;98942.63;5110673;28;20978;-60
2021/12/27 02:59:38;;;;;;;132.33;10.00;;;;;;;-0.13;100.00;98938.59;5111116;28;20446;-68
2021/12/27 03:02:05;;;;;;;144.33;10.03;;;;;;;-0.14;100.00;98944.50;5110697;28;20984;-60
2021/12/27 03:04:37;;;;;;;111.73;7.20;;;;;;;-0.25;100.00;98943.13;5110589;28;21053;-60
2021/12/27 03:07:04;;;;;;;139.23;8.00;;;;;;;-0.19;100.00;98962.19;5110605;28;20498;-61
2021/12/27 03:09:31;;;;;;;233.67;13.73;;;;;;;-0.29;100.00;98984.28;5110641;28;20443;-66
2021/12/27 03:12:00;;;;;;;157.50;10.47;;;;;;;-0.15;100.00;98983.03;5110460;28;20467;-68
2021/12/27 03:14:27;;;;;;;122.70;9.67;;;;;;;-0.21;100.00;98978.19;5110752;28;20457;-60
2021/12/27 03:16:54;;;;;;;118.73;8.73;;;;;;;-0.22;100.00;98971.53;5110613;28;20479;-60
2021/12/27 03:19:21;;;;;;;227.77;12.10;;;;;;;-0.14;100.00;98969.63;5110465;28;20450;-67
2021/12/27 03:21:48;;;;;;;215.07;13.83;;;;;;;-0.14;100.00;98989.72;5110693;28;20463;-61
2021/12/27 03:24:15;;;;;;;157.43;9.87;;;;;;;-0.09;100.00;98990.38;5110517;28;20487;-59
2021/12/27 03:26:41;;;;;;;101.17;8.50;;;;;;;-0.16;100.00;98978.88;5110688;28;20478;-68
2021/12/27 03:29:10;;;;;;;196.20;11.10;;;;;;;-0.12;100.00;98985.44;5113186;28;20453;-67
2021/12/27 03:31:38;;;;;;;94.23;8.40;;;;;;;-0.11;100.00;98989.63;5114455;28;20835;-68
2021/12/27 03:34:04;;;;;;;146.13;9.47;;;;;;;-0.25;100.00;98988.34;5114362;28;20925;-60
2021/12/27 03:36:38;;;;;;;189.53;12.73;;;;;;;-0.18;100.00;98995.69;5113861;28;20475;-68
2021/12/27 03:39:06;;;;;;;107.77;6.77;;;;;;;-0.21;100.00;98991.56;5114022;28;20447;-67
2021/12/27 03:41:33;;;;;;;97.93;7.37;;;;;;;-0.12;100.00;98995.50;5114101;28;20858;-67
2021/12/27 03:44:01;;;;;;;170.27;10.53;;;;;;;-0.20;100.00;98989.88;5113875;28;20497;-60
2021/12/27 03:46:29;;;;;;;151.47;9.30;;;;;;;-0.15;100.00;98993.06;5113997;28;20877;-67
2021/12/27 03:48:56;;;;;;;86.13;7.13;;;;;;;-0.18;100.00;98988.16;5113829;28;20487;-60
2021/12/27 03:51:24;;;;;;;135.70;10.43;;;;;;;-0.21;100.00;98980.72;5114178;28;20486;-59
2021/12/27 03:53:51;;;;;;;141.10;9.90;;;;;;;-0.06;100.00;98982.75;5113935;28;20443;-68
2021/12/27 03:56:22;;;;;;;130.07;10.47;;;;;;;-0.03;100.00;98983.50;5113531;28;20470;-59
2021/12/27 03:58:56;;;;;;;132.90;9.23;;;;;;;-0.05;100.00;98976.88;5113725;28;20442;-60
2021/12/27 04:01:24;;;;;;;116.03;7.50;;;;;;;-0.06;100.00;98972.69;5113505;28;20475;-59
2021/12/27 04:03:55;;;;;;;82.43;7.23;;;;;;;-0.05;100.00;98971.84;5113427;28;20546;-68
2021/12/27 04:06:23;;;;;;;109.13;7.07;;;;;;;0.04;100.00;98963.19;5113805;28;20471;-60
2021/12/27 04:08:50;;;;;;;188.23;11.87;;;;;;;-0.02;100.00;98970.06;5113557;28;20449;-68
2021/12/27 04:11:17;;;;;;;161.77;8.33;;;;;;;-0.01;100.00;98971.69;5113355;27;20478;-60
2021/12/27 04:13:44;;;;;;;173.13;9.77;;;;;;;-0.07;100.00;98961.81;5113512;28;20455;-60
2021/12/27 04:16:11;;;;;;;120.93;9.73;;;;;;;-0.05;100.00;98949.22;5113269;28;20474;-60
2021/12/27 04:18:38;;;;;;;166.73;9.30;;;;;;;-0.04;100.00;98960.91;5113231;28;20447;-61
2021/12/27 04:21:06;;;;;;;171.10;11.20;;;;;;;0.00;100.00;98962.47;5113078;28;20475;-68
2021/12/27 04:23:33;;;;;;;104.80;7.60;;;;;;;-0.02;100.00;98970.06;5113244;28;20508;-60
2021/12/27 04:26:00;;;;;;;168.67;10.87;;;;;;;0.02;100.00;98965.75;5113189;28;20823;-68
2021/12/27 04:28:27;;;;;;;126.47;7.97;;;;;;;0.01;100.00;98971.66;5113367;28;20607;-60
2021/12/27 04:30:54;;;;;;;90.83;7.53;;;;;;;0.03;100.00;98967.41;5112976;28;20984;-60
2021/12/27 04:33:21;;;;;;;96.53;7.23;;;;;;;-0.05;100.00;98965.13;5113501;28;20439;-61
2021/12/27 04:35:48;;;;;;;112.03;6.60;;;;;;;0.07;100.00;98968.94;5112810;28;20479;-60
2021/12/27 04:38:17;;;;;;;81.47;6.53;;;;;;;0.08;100.00;98969.75;5113452;28;20454;-59
2021/12/27 04:40:46;;;;;;;118.23;7.57;;;;;;;0.06;100.00;98962.28;5112789;28;20483;-67
2021/12/27 04:43:15;;;;;;;72.77;6.23;;;;;;;0.01;100.00;98959.09;5112902;28;20464;-68
2021/12/27 04:45:46;;;;;;;124.73;9.83;;;;;;;-0.07;100.00;98954.28;5112911;28;20513;-68
2021/12/27 04:48:13;;;;;;;73.10;7.20;;;;;;;-0.03;100.00;98953.34;5112887;28;20431;-68
2021/12/27 04:50:40;;;;;;;171.23;10.23;;;;;;;0.03;100.00;98974.94;5112655;28;20478;-60
2021/12/27 04:53:07;;;;;;;134.40;7.30;;;;;;;0.07;100.00;98971.44;5112589;28;20994;-60
2021/12/27 04:55:35;;;;;;;108.17;8.10;;;;;;;0.05;100.00;98954.78;5112624;28;20493;-68
2021/12/27 04:58:03;;;;;;;110.70;7.67;;;;;;;0.07;100.00;98948.00;5112649;28;20443;-68
2021/12/27 05:00:30;;;;;;;115.53;7.77;;;;;;;0.00;100.00;98939.84;5112257;28;20477;-60
2021/12/27 05:02:58;;;;;;;78.57;6.13;;;;;;;-0.05;100.00;98954.25;5112506;28;20469;-67
2021/12/27 05:05:25;;;;;;;64.97;5.70;;;;;;;-0.05;100.00;98951.75;5112211;28;21030;-60
2021/12/27 05:07:52;;;;;;;76.40;5.53;;;;;;;-0.03;100.00;98949.97;5112316;28;20453;-68
2021/12/27 05:10:19;;;;;;;107.03;6.40;;;;;;;-0.02;100.00;98954.16;5112288;28;20447;-68
2021/12/27 05:12:48;;;;;;;184.67;10.10;;;;;;;-0.03;100.00;98972.59;5112407;28;20447;-60
2021/12/27 05:15:15;;;;;;;112.47;8.23;;;;;;;-0.09;100.00;98973.63;5112331;28;20494;-61
2021/12/27 05:17:42;;;;;;;89.63;7.57;;;;;;;-0.03;100.00;98967.56;5112373;28;20844;-60
2021/12/27 05:20:09;;;;;;;123.23;6.60;;;;;;;0.00;100.00;98982.59;5111906;28;20462;-68
2021/12/27 05:22:38;;;;;;;90.87;7.00;;;;;;;0.09;100.00;98994.84;5112147;28;20447;-68
2021/12/27 05:25:06;;;;;;;108.93;7.70;;;;;;;0.03;100.00;98985.00;5111841;28;20517;-68
2021/12/27 05:27:33;;;;;;;116.37;8.17;;;;;;;-0.01;100.00;98980.91;5112238;28;20443;-68
2021/12/27 05:30:01;;;;;;;88.13;6.97;;;;;;;-0.02;100.00;98984.31;5111769;28;20466;-68
2021/12/27 05:32:28;;;;;;;69.60;5.07;;;;;;;0.02;100.00;98980.00;5111880;28;20892;-60
2021/12/27 05:34:55;;;;;;;144.10;9.23;;;;;;;0.05;100.00;98969.84;5111756;28;20455;-60
2021/12/27 05:37:21;;;;;;;155.63;8.83;;;;;;;0.05;100.00;98970.66;5112051;28;20475;-60
2021/12/27 05:39:48;;;;;;;105.10;6.37;;;;;;;0.02;100.00;98964.94;5111844;28;20451;-68
2021/12/27 05:42:15;;;;;;;109.60;6.43;;;;;;;-0.03;100.00;98962.53;5111893;28;21010;-67
2021/12/27 05:44:42;;;;;;;88.77;6.27;;;;;;;-0.06;100.00;98960.13;5111566;28;20875;-60
2021/12/27 05:47:10;;;;;;;139.97;8.07;;;;;;;-0.09;100.00;98972.78;5111519;28;20462;-61
2021/12/27 05:49:37;;;;;;;119.43;8.70;;;;;;;-0.09;100.00;98967.75;5111641;28;20955;-68
2021/12/27 05:52:05;;;;;;;159.40;8.63;;;;;;;-0.05;100.00;98959.28;5110963;28;20482;-68
2021/12/27 05:54:32;;;;;;;127.67;7.80;;;;;;;0.00;100.00;98965.00;5111606;28;20443;-68
2021/12/27 05:56:59;;;;;;;103.37;7.50;;;;;;;-0.07;100.00;98951.78;5111493;28;20833;-60
2021/12/27 05:59:26;;;;;;;96.73;6.43;;;;;;;-0.03;100.00;98958.38;5111447;28;20665;-60
2021/12/27 06:01:53;;;;;;;131.90;8.53;;;;;;;-0.06;100.00;98947.56;5111227;28;20490;-68
2021/12/27 06:04:21;;;;;;;105.67;6.50;;;;;;;-0.06;100.00;98950.06;5111393;28;20822;-68
2021/12/27 06:06:48;;;;;;;143.10;8.67;;;;;;;0.01;100.00;98954.06;5111187;28;20493;-60
2021/12/27 06:09:14;;;;;;;102.33;6.80;;;;;;;-0.03;100.00;98957.50;5111693;28;20859;-68
2021/12/27 06:11:41;;;;;;;148.90;8.80;;;;;;;0.06;100.00;98967.31;5111731;28;20483;-68
2021/12/27 06:14:08;;;;;;;46.20;3.50;;;;;;;-0.01;100.00;98950.75;5111324;28;20443;-59
2021/12/27 06:16:35;;;;;;;56.47;4.77;;;;;;;-0.11;100.00;98941.88;5111063;28;20505;-68
2021/12/27 06:19:02;;;;;;;52.37;5.60;;;;;;;-0.06;100.00;98950.06;5111205;28;20439;-60
2021/12/27 06:21:33;;;;;;;137.17;9.50;;;;;;;0.01;100.00;98968.31;5111452;28;20462;-60
2021/12/27 06:24:00;;;;;;;113.27;8.67;;;;;;;-0.01;100.00;98986.75;5111333;28;20435;-60
2021/12/27 06:26:27;;;;;;;70.53;5.83;;;;;;;-0.06;100.00;98987.78;5111355;28;20501;-60
2021/12/27 06:28:54;;;;;;;108.40;6.67;;;;;;;0.04;100.00;98989.16;5110967;28;20442;-68
2021/12/27 06:31:22;;;;;;;68.90;5.30;;;;;;;0.01;100.00;98994.28;5111104;28;20763;-68
2021/12/27 06:33:49;;;;;;;59.37;5.53;;;;;;;-0.10;100.00;98997.09;5111092;28;21004;-67
2021/12/27 06:36:16;;;;;;;87.37;5.93;;;;;;;-0.10;100.00;98986.22;5111136;28;20855;-60
2021/12/27 06:38:44;;;;;;;81.90;5.53;;;;;;;-0.02;100.00;98984.31;5111276;28;20443;-68
2021/12/27 06:41:11;;;;;;;66.53;5.67;;;;;;;0.00;100.00;98987.59;5111067;28;21030;-68
2021/12/27 06:43:38;;;;;;;113.73;7.77;;;;;;;0.09;100.00;98992.34;5110862;28;20447;-60
2021/12/27 06:46:05;;;;;;;96.33;6.67;;;;;;;0.11;100.00;98990.59;5110767;28;20507;-59
2021/12/27 06:48:32;;;;;;;72.43;5.43;;;;;;;0.04;100.00;98979.09;5111357;28;20443;-60
2021/12/27 06:50:59;;;;;;;71.77;7.70;;;;;;;0.07;100.00;98973.16;5111029;28;20467;-61
2021/12/27 06:53:28;;;;;;;86.03;6.03;;;;;;;-0.02;100.00;98964.19;5111210;28;20454;-68
2021/12/27 06:55:56;;;;;;;40.43;4.47;;;;;;;0.07;100.00;98955.56;5110648;28;20502;-59
2021/12/27 06:58:24;;;;;;;123.50;6.67;;;;;;;0.08;100.00;98950.47;5110897;28;20960;-61
2021/12/27 07:00:51;;;;;;;66.53;5.07;;;;;;;0.11;100.00;98960.41;5110773;28;20478;-59
2021/12/27 07:03:18;;;;;;;85.43;5.60;;;;;;;0.13;100.00;98961.19;5112481;28;20447;-68
2021/12/27 07:05:44;;;;;;;52.50;3.00;;;;;;;0.19;100.00;98958.50;5115026;27;20880;-60
2021/12/27 07:08:11;;;;;;;106.53;6.43;;;;;;;0.29;100.00;98958.19;5114695;28;20997;-60
2021/12/27 07:10:39;;;;;;;110.63;6.83;;;;;;;0.16;100.00;98963.63;5114594;28;20573;-68
2021/12/27 07:13:09;;;;;;;58.70;4.17;;;;;;;0.17;100.00;98972.78;5114620;28;20951;-68
2021/12/27 07:15:41;;;;;;;62.53;5.23;;;;;;;0.18;100.00;98966.91;5114633;27;20474;-68
2021/12/27 07:18:08;;;;;;;25.40;3.20;;;;;;;0.06;100.00;98952.22;5114460;28;20521;-68
2021/12/27 07:20:35;;;;;;;83.83;5.13;;;;;;;0.03;100.00;98948.97;5114526;28;20474;-68
2021/12/27 07:23:02;;;;;;;39.37;4.07;;;;;;;0.05;100.00;98939.69;5114361;28;20438;-60
2021/12/27 07:25:29;;;;;;;82.37;4.67;;;;;;;0.14;100.00;98940.22;5114312;28;20494;-68
2021/12/27 07:27:56;;;;;;;74.23;5.23;;;;;;;0.15;100.00;98934.34;5114530;28;20435;-60
2021/12/27 07:30:24;;;;;;;55.53;3.17;;;;;;;0.15;100.00;98931.81;5114161;28;20853;-69
2021/12/27 07:32:51;;;;;;;84.43;5.97;;;;;;;0.11;100.00;98930.25;5114388;28;20443;-60
2021/12/27 07:35:18;;;;;;;88.70;6.03;;;;;;;0.04;100.00;98936.38;5114280;28;20454;-68
2021/12/27 07:37:45;;;;;;;58.67;5.50;;;;;;;0.03;100.00;98947.31;5114276;28;20454;-68
2021/12/27 07:40:12;;;;;;;71.87;5.43;;;;;;;-0.02;100.00;98954.16;5114196;28;20900;-69
2021/12/27 07:42:39;;;;;;;25.40;2.60;;;;;;;-0.10;100.00;98941.00;5114023;28;20461;-59
2021/12/27 07:45:06;;;;;;;108.50;5.70;;;;;;;-0.10;100.00;98943.50;5114176;28;21249;-68
2021/12/27 07:47:35;;;;;;;35.33;3.03;;;;;;;-0.02;100.00;98954.16;5113993;28;20443;-61
2021/12/27 07:50:02;;;;;;;107.33;7.30;;;;;;;-0.08;100.00;98936.75;5113723;28;20459;-67
2021/12/27 07:52:29;;;;;;;63.00;4.83;;;;;;;-0.04;100.00;98926.53;5113834;28;20470;-61
2021/12/27 07:54:56;;;;;;;31.87;3.00;;;;;;;0.01;100.00;98913.03;5113870;28;20451;-69
2021/12/27 07:57:23;;;;;;;94.63;6.33;;;;;;;0.00;100.00;98907.19;5113947;28;20463;-68
2021/12/27 07:59:51;;;;;;;66.60;4.53;;;;;;;0.07;100.00;98918.66;5113805;28;20461;-60
2021/12/27 08:02:18;;;;;;;120.80;6.77;;;;;;;0.04;100.00;98911.22;5113650;28;20474;-60
2021/12/27 08:04:46;;;;;;;86.50;6.00;;;;;;;0.06;100.00;98917.03;5114018;28;20824;-59
2021/12/27 08:07:13;;;;;;;100.77;5.83;;;;;;;0.02;100.00;98915.47;5113604;28;20494;-67
2021/12/27 08:09:40;;;;;;;63.47;4.57;;;;;;;-0.05;100.00;98909.00;5113411;28;20447;-68
2021/12/27 08:12:12;;;;;;;63.70;5.40;;;;;;;-0.08;100.00;98904.09;5113264;28;20490;-68
2021/12/27 08:14:39;;;;;;;69.37;4.87;;;;;;;-0.14;100.00;98904.28;5113305;28;20466;-62
2021/12/27 08:17:06;;;;;;;75.60;6.07;;;;;;;-0.07;100.00;98896.47;5113117;28;20479;-68
2021/12/27 08:19:33;;;;;;;41.60;3.57;;;;;;;-0.08;100.00;98899.88;5113423;28;20454;-60
2021/12/27 08:22:02;;;;;;;81.87;4.80;;;;;;;-0.07;100.00;98900.69;5113202;27;20531;-60
2021/12/27 08:24:29;;;;;;;52.03;4.90;;;;;;;-0.02;100.00;98901.38;5113101;28;20458;-68
2021/12/27 08:26:55;;;;;;;42.03;3.63;;;;;;;-0.02;100.00;98893.84;5113013;28;20495;-68
2021/12/27 08:29:22;;;;;;;51.03;4.40;;;;;;;-0.10;100.00;98914.19;5113425;28;20447;-67
2021/12/27 08:31:49;;;;;;;49.03;4.43;;;;;;;-0.09;100.00;98922.53;5112905;28;20498;-60
2021/12/27 08:34:16;;;;;;;139.53;8.17;;;;;;;-0.18;100.00;98922.81;5113075;28;20453;-68
2021/12/27 08:36:43;;;;;;;65.87;4.17;;;;;;;-0.01;100.00;98928.13;5112998;28;20473;-65
2021/12/27 08:39:11;;;;;;;138.53;8.30;;;;;;;0.01;100.00;98918.88;5113218;28;20446;-60
2021/12/27 08:41:38;;;;;;;74.80;4.77;;;;;;;0.11;100.00;98920.19;5113141;28;20479;-59
2021/12/27 08:44:06;;;;;;;89.97;5.10;;;;;;;-0.05;100.00;98909.00;5112832;28;20882;-66
2021/12/27 08:46:33;;;;;;;114.50;7.53;;;;;;;0.13;100.00;98903.38;5113066;28;20890;-59
2021/12/27 08:49:00;;;;;;;34.07;2.83;;;;;;;0.08;100.00;98915.28;5112838;28;20443;-67
2021/12/27 08:51:27;;;;;;;93.03;5.37;;;;;;;0.18;100.00;98928.38;5112421;28;21023;-59
2021/12/27 08:53:54;;;;;;;64.27;5.33;;;;;;;0.10;100.00;98923.59;5112699;27;20447;-59
2021/12/27 08:56:23;;;;;;;43.03;3.33;;;;;;;0.08;100.00;98910.25;5112773;28;20479;-59
2021/12/27 08:58:50;;;;;;;83.00;6.80;;;;;;;0.23;100.00;98903.91;5112716;28;20443;-67
2021/12/27 09:01:17;;;;;;;85.40;4.97;;;;;;;0.29;100.00;98901.19;5112391;28;20994;-67
2021/12/27 09:03:44;;;;;;;118.50;7.40;;;;;;;0.32;100.00;98902.75;5113166;28;20220;-66
2021/12/27 09:06:11;;;;;;;92.17;6.27;;;;;;;0.38;100.00;98922.72;5112504;28;20608;-68
2021/12/27 09:08:38;;;;;;;67.50;5.97;;;;;;;0.36;100.00;98939.53;5112258;28;20205;-60
2021/12/27 09:11:05;;;;;;;119.53;6.57;;;;;;;0.20;100.00;98924.97;5112386;28;20217;-68
2021/12/27 09:13:36;;;;;;;100.27;7.10;;;;;;;0.20;100.00;98914.91;5112712;28;20443;-67
2021/12/27 09:16:05;;;;;;;78.13;4.03;;;;;;;0.30;100.00;98910.38;5112411;28;20471;-69
2021/12/27 09:18:33;;;;;;;98.03;6.87;;;;;;;0.31;100.00;98891.91;5112346;28;20534;-68
2021/12/27 09:21:00;;;;;;;95.33;7.20;;;;;;;0.32;100.00;98880.13;5112359;28;20506;-61
2021/12/27 09:23:28;;;;;;;104.80;7.37;;;;;;;0.31;100.00;98863.41;5112041;28;20439;-61
2021/12/27 09:25:55;;;;;;;72.23;4.90;;;;;;;0.44;100.00;98867.16;5111392;28;20232;-69
2021/12/27 09:28:22;;;;;;;106.23;6.67;;;;;;;0.26;100.00;98855.22;5112105;27;20443;-68
2021/12/27 09:30:51;;;;;;;146.07;8.27;;;;;;;0.46;100.00;98860.38;5112074;28;20852;-61
2021/12/27 09:33:18;;;;;;;196.60;10.30;;;;;;;0.62;100.00;98873.25;5112087;28;20446;-61
2021/12/27 09:35:44;;;;;;;79.20;5.03;;;;;;;0.63;100.00;98862.31;5112043;28;20477;-68
2021/12/27 09:38:11;;;;;;;163.40;8.87;;;;;;;0.63;100.00;98873.19;5111882;28;20595;-61
2021/12/27 09:40:39;;;;;;;95.40;7.03;;;;;;;0.72;100.00;98886.31;5111627;28;20217;-63
2021/12/27 09:43:06;;;;;;;123.00;7.53;;;;;;;0.67;100.00;98879.75;5111999;28;20462;-69
2021/12/27 09:45:33;;;;;;;118.13;9.10;;;;;;;0.78;100.00;98866.78;5111479;28;20221;-68
2021/12/27 09:48:02;;;;;;;198.97;11.10;;;;;;;0.67;100.00;98859.63;5111896;28;20585;-60
2021/12/27 09:50:33;;;;;;;101.43;7.17;;;;;;;0.73;100.00;98857.75;5111617;28;20224;-61
2021/12/27 09:53:00;;;;;;;199.50;9.97;;;;;;;0.78;100.00;98861.75;5111807;28;20216;-68
2021/12/27 09:55:28;;;;;;;116.47;7.77;;;;;;;0.80;100.00;98860.00;5111597;28;20228;-61
2021/12/27 09:57:55;;;;;;;103.07;8.20;;;;;;;0.84;100.00;98866.59;5111456;28;20201;-60
2021/12/27 10:00:22;;;;;;;173.50;9.73;;;;;;;0.60;100.00;98855.69;5111477;28;20197;-59
2021/12/27 10:02:51;;;;;;;184.90;10.50;;;;;;;0.59;100.00;98856.56;5111304;28;20678;-68
2021/12/27 10:05:21;;;;;;;80.20;6.87;;;;;;;0.57;100.00;98845.72;5111252;28;20193;-68
2021/12/27 10:07:48;;;;;;;96.83;5.83;;;;;;;0.59;100.00;98846.50;5111255;28;20229;-68
2021/12/27 10:10:15;;;;;;;159.07;9.40;;;;;;;0.63;100.00;98827.06;5111383;28;20197;-68
2021/12/27 10:12:42;;;;;;;112.67;6.83;;;;;;;0.61;100.00;98829.66;5111467;28;20450;-60
2021/12/27 10:15:11;;;;;;;157.73;9.80;;;;;;;0.64;100.00;98842.13;5111144;28;20215;-68
2021/12/27 10:17:42;;;;;;;183.30;11.20;;;;;;;0.74;100.00;98856.91;5111438;28;20848;-68
2021/12/27 10:20:14;;;;;;;103.77;8.00;;;;;;;0.83;100.00;98834.72;5111101;28;20201;-61
2021/12/27 10:22:44;;;;;;;50.60;4.63;;;;;;;0.79;100.00;98832.41;5111143;28;20197;-68
2021/12/27 10:25:16;;;;;;;151.17;9.77;;;;;;;0.74;100.00;98839.28;5111355;28;20597;-60
2021/12/27 10:27:43;;;;;;;193.37;11.57;;;;;;;0.85;100.00;98827.13;5111157;28;20233;-68
2021/12/27 10:30:13;;;;;;;116.30;6.90;;;;;;;0.88;100.00;98824.50;5110868;28;20228;-60
2021/12/27 10:32:40;;;;;;;122.13;9.07;;;;;;;0.75;100.00;98805.69;5111094;28;20205;-67
2021/12/27 10:35:09;;;;;;;100.37;7.83;;;;;;;0.80;100.00;98789.53;5111094;28;20593;-67
2021/12/27 10:37:37;;;;;;;188.50;8.90;;;;;;;0.81;100.00;98791.16;5113214;28;20212;-68
2021/12/27 10:40:10;;;;;;;115.10;8.67;;;;;;;0.79;100.00;98797.16;5115316;28;20237;-68
2021/12/27 10:42:38;;;;;;;175.70;11.17;;;;;;;0.77;100.00;98773.75;5115142;27;20201;-60
2021/12/27 10:45:08;;;;;;;128.77;9.03;;;;;;;0.76;100.00;98789.72;5115083;28;20201;-60
2021/12/27 10:47:39;;;;;;;136.60;8.97;;;;;;;0.77;100.00;98781.28;5115238;28;20289;-60
2021/12/27 10:50:25;;;;;;;181.73;11.57;;;;;;;0.74;100.00;98777.19;5115044;28;20986;-68
2021/12/27 10:52:56;;;;;;;148.23;8.67;;;;;;;0.72;100.00;98775.59;5115048;28;20193;-60
2021/12/27 10:55:27;;;;;;;138.43;8.70;;;;;;;0.68;100.00;98760.63;5114983;28;20208;-68
2021/12/27 10:58:09;;;;;;;91.77;8.20;;;;;;;0.60;100.00;98752.53;5114793;28;20215;-69
2021/12/27 11:00:37;;;;;;;30.57;3.03;;;;;;;0.59;100.00;98745.88;5114966;28;20228;-61
2021/12/27 11:03:04;;;;;;;107.77;7.60;;;;;;;0.52;100.00;98754.50;5114956;28;20197;-67
2021/12/27 11:05:34;;;;;;;144.37;9.07;;;;;;;0.50;100.00;98756.28;5114960;28;20248;-60
2021/12/27 11:08:05;;;;;;;170.20;11.57;;;;;;;0.61;100.00;98753.34;5114928;28;20225;-59
2021/12/27 11:10:36;;;;;;;162.80;10.77;;;;;;;0.65;100.00;98755.72;5114960;28;20328;-68
2021/12/27 11:13:04;;;;;;;58.30;5.70;;;;;;;0.59;100.00;98775.25;5114874;28;20194;-68
2021/12/27 11:15:32;;;;;;;114.83;8.53;;;;;;;0.40;100.00;98770.06;5114713;28;20218;-60
2021/12/27 11:17:59;;;;;;;136.13;9.47;;;;;;;0.54;100.00;98752.78;5114373;28;20450;-68